Latest Weather Observations for South Channel Island

IDV60901

Issued at 12:41 am EST Thursday 18 July 2019 (issued every 10 minutes, with the page automatically refreshed every 10 minutes)

About weather observations | Map of Melbourne area stations | Latest observations for Melbourne area | Other Formats
Station Details ID: 086344 Name: SOUTH CHANNEL ISLAND Lat: -38.31 Lon: 144.80 Height: 9.0 m
Data from the previous 72 hours. | See also: Recent months at South Channel Island
Date/Time
EST
Temp
°C
App
Temp
°C
Dew
Point
°C
Rel
Hum
%
Delta-T
°C
Wind Press
QNH
hPa
Press
MSL
hPa
Rain since
9am
mm
Dir  Spd
km/h
Gust
km/h
Spd
kts
Gust
kts
18/12:30am - - - - - W 43 52 23 28 - - -
18/12:00am - - - - - WNW 37 43 20 23 - - -
 
Date/Time
EST
Temp
°C
App
Temp
°C
Dew
Point
°C
Rel
Hum
%
Delta-T
°C
Wind Press
QNH
hPa
Press
MSL
hPa
Rain since
9am
mm
Dir  Spd
km/h
Gust
km/h
Spd
kts
Gust
kts
17/11:30pm - - - - - WNW 35 41 19 22 - - -
17/11:00pm - - - - - W 35 43 19 23 - - -
17/10:30pm - - - - - W 39 54 21 29 - - -
17/10:00pm - - - - - WNW 39 43 21 23 - - -
17/09:30pm - - - - - W 37 48 20 26 - - -
17/09:00pm - - - - - W 43 48 23 26 - - -
17/08:30pm - - - - - W 37 46 20 25 - - -
17/08:00pm - - - - - WNW 33 39 18 21 - - -
17/07:30pm - - - - - W 32 37 17 20 - - -
17/07:00pm - - - - - W 35 41 19 22 - - -
17/06:30pm - - - - - W 41 50 22 27 - - -
17/06:00pm - - - - - W 41 50 22 27 - - -
17/05:30pm - - - - - W 48 57 26 31 - - -
17/05:00pm - - - - - WNW 39 48 21 26 - - -
17/04:30pm - - - - - W 46 57 25 31 - - -
17/04:00pm - - - - - W 52 61 28 33 - - -
17/03:30pm - - - - - WNW 52 57 28 31 - - -
17/03:00pm - - - - - WNW 44 56 24 30 - - -
17/02:30pm - - - - - WNW 50 57 27 31 - - -
17/02:00pm - - - - - WNW 37 44 20 24 - - -
17/01:30pm - - - - - WNW 41 48 22 26 - - -
17/01:00pm - - - - - NW 37 44 20 24 - - -
17/12:30pm - - - - - NW 41 50 22 27 - - -
17/12:00pm - - - - - NW 33 39 18 21 - - -
17/11:30am - - - - - NW 35 41 19 22 - - -
17/11:00am - - - - - NW 37 48 20 26 - - -
17/10:30am - - - - - NW 33 41 18 22 - - -
17/10:00am - - - - - NW 35 44 19 24 - - -
17/09:30am - - - - - NW 32 39 17 21 - - -
17/09:00am - - - - - NW 28 32 15 17 - - -
17/08:30am - - - - - WNW 26 30 14 16 - - -
17/08:00am - - - - - NW 24 32 13 17 - - -
17/07:30am - - - - - NW 30 35 16 19 - - -
17/07:00am - - - - - NW 28 33 15 18 - - -
17/06:30am - - - - - NW 33 37 18 20 - - -
17/06:00am - - - - - NNW 32 39 17 21 - - -
17/05:30am - - - - - NW 33 41 18 22 - - -
17/05:00am - - - - - NW 33 37 18 20 - - -
17/04:30am - - - - - NW 33 39 18 21 - - -
17/04:00am - - - - - WNW 33 39 18 21 - - -
17/03:30am - - - - - WNW 35 39 19 21 - - -
17/03:00am - - - - - WNW 35 41 19 22 - - -
17/02:30am - - - - - WNW 35 43 19 23 - - -
17/02:00am - - - - - WNW 37 44 20 24 - - -
17/01:30am - - - - - NW 37 44 20 24 - - -
17/01:00am - - - - - NW 35 43 19 23 - - -
17/12:30am - - - - - NW 35 41 19 22 - - -
17/12:00am - - - - - WNW 32 35 17 19 - - -
 
Date/Time
EST
Temp
°C
App
Temp
°C
Dew
Point
°C
Rel
Hum
%
Delta-T
°C
Wind Press
QNH
hPa
Press
MSL
hPa
Rain since
9am
mm
Dir  Spd
km/h
Gust
km/h
Spd
kts
Gust
kts
16/11:30pm - - - - - WNW 37 46 20 25 - - -
16/11:00pm - - - - - WNW 33 41 18 22 - - -
16/10:30pm - - - - - WNW 33 37 18 20 - - -
16/10:00pm - - - - - WNW 39 44 21 24 - - -
16/09:30pm - - - - - WNW 30 35 16 19 - - -
16/09:00pm - - - - - W 28 32 15 17 - - -
16/08:30pm - - - - - W 30 39 16 21 - - -
16/08:00pm - - - - - W 37 41 20 22 - - -
16/07:30pm - - - - - W 32 39 17 21 - - -
16/07:00pm - - - - - W 30 33 16 18 - - -
16/06:30pm - - - - - W 24 28 13 15 - - -
16/06:00pm - - - - - W 22 28 12 15 - - -
16/05:30pm - - - - - WSW 30 35 16 19 - - -
16/05:00pm - - - - - WSW 30 37 16 20 - - -
16/04:30pm - - - - - SW 37 52 20 28 - - -
16/04:03pm - - - - - SW 32 56 17 30 - - -
16/04:00pm - - - - - SW 28 35 15 19 - - -
16/03:30pm - - - - - WSW 26 32 14 17 - - -
16/03:00pm - - - - - WSW 28 37 15 20 - - -
16/02:30pm - - - - - WSW 30 33 16 18 - - -
16/02:00pm - - - - - WSW 26 32 14 17 - - -
16/01:30pm - - - - - W 26 30 14 16 - - -
16/01:00pm - - - - - W 28 32 15 17 - - -
16/12:30pm - - - - - W 32 35 17 19 - - -
16/12:00pm - - - - - W 30 37 16 20 - - -
16/11:30am - - - - - W 28 33 15 18 - - -
16/11:00am - - - - - W 35 39 19 21 - - -
16/10:30am - - - - - W 35 41 19 22 - - -
16/10:00am - - - - - WNW 32 35 17 19 - - -
16/09:30am - - - - - WNW 30 35 16 19 - - -
16/09:10am - - - - - WNW 30 37 16 20 - - -
16/09:00am - - - - - WSW 37 46 20 25 - - -
16/08:30am - - - - - WSW 37 50 20 27 - - -
16/08:11am - - - - - W 28 54 15 29 - - -
16/08:00am - - - - - W 24 33 13 18 - - -
16/07:30am - - - - - W 28 33 15 18 - - -
16/07:00am - - - - - W 28 32 15 17 - - -
16/06:30am - - - - - W 26 30 14 16 - - -
16/06:00am - - - - - WNW 26 30 14 16 - - -
16/05:30am - - - - - WNW 26 30 14 16 - - -
16/05:00am - - - - - W 28 37 15 20 - - -
16/04:30am - - - - - W 30 33 16 18 - - -
16/04:00am - - - - - WNW 28 33 15 18 - - -
16/03:30am - - - - - WNW 30 35 16 19 - - -
16/03:00am - - - - - WNW 30 33 16 18 - - -
16/02:30am - - - - - WNW 26 30 14 16 - - -
16/02:00am - - - - - WNW 28 32 15 17 - - -
16/01:30am - - - - - WNW 32 37 17 20 - - -
16/01:00am - - - - - WNW 32 37 17 20 - - -
16/12:30am - - - - - W 32 37 17 20 - - -
16/12:00am - - - - - WNW 30 35 16 19 - - -
 
Date/Time
EST
Temp
°C
App
Temp
°C
Dew
Point
°C
Rel
Hum
%
Delta-T
°C
Wind Press
QNH
hPa
Press
MSL
hPa
Rain since
9am
mm
Dir  Spd
km/h
Gust
km/h
Spd
kts
Gust
kts
15/11:30pm - - - - - WSW 32 41 17 22 - - -
15/11:00pm - - - - - WSW 35 43 19 23 - - -
15/10:30pm - - - - - SW 41 48 22 26 - - -
15/10:00pm - - - - - WSW 43 54 23 29 - - -
15/09:30pm - - - - - WSW 41 52 22 28 - - -
15/09:00pm - - - - - SW 48 59 26 32 - - -
15/08:30pm - - - - - WSW 41 52 22 28 - - -
15/08:00pm - - - - - SW 37 43 20 23 - - -
15/07:30pm - - - - - SW 37 43 20 23 - - -
15/07:00pm - - - - - SW 30 37 16 20 - - -
15/06:30pm - - - - - WSW 33 39 18 21 - - -
15/06:00pm - - - - - WSW 32 39 17 21 - - -
15/05:30pm - - - - - WSW 30 35 16 19 - - -
15/05:00pm - - - - - W 32 39 17 21 - - -
15/04:30pm - - - - - W 30 35 16 19 - - -
15/04:00pm - - - - - W 28 32 15 17 - - -
15/03:30pm - - - - - W 30 35 16 19 - - -
15/03:00pm - - - - - W 24 32 13 17 - - -
15/02:30pm - - - - - W 30 35 16 19 - - -
15/02:00pm - - - - - W 26 32 14 17 - - -
15/01:30pm - - - - - WSW 33 41 18 22 - - -
15/01:00pm - - - - - WSW 39 50 21 27 - - -
15/12:30pm - - - - - WSW 37 43 20 23 - - -
15/12:00pm - - - - - WSW 43 52 23 28 - - -
15/11:30am - - - - - WSW 41 48 22 26 - - -
15/11:00am - - - - - WSW 35 48 19 26 - - -
15/10:30am - - - - - SW 30 39 16 21 - - -
15/10:00am - - - - - SW 35 41 19 22 - - -
15/09:30am - - - - - SW 39 52 21 28 - - -
15/09:00am - - - - - SW 39 48 21 26 - - -
15/08:30am - - - - - SW 32 37 17 20 - - -
15/08:15am - - - - - SSW 44 63 24 34 - - -
15/08:00am - - - - - SW 46 57 25 31 - - -
15/07:50am - - - - - SW 35 54 19 29 - - -
15/07:30am - - - - - SSW 43 48 23 26 - - -
15/07:00am - - - - - SW 35 41 19 22 - - -
15/06:30am - - - - - SW 41 54 22 29 - - -
15/06:00am - - - - - SW 44 57 24 31 - - -
15/05:34am - - - - - SW 44 63 24 34 - - -
15/05:30am - - - - - SW 43 56 23 30 - - -
15/05:00am - - - - - SSW 54 70 29 38 - - -
15/04:52am - - - - - SSW 52 70 28 38 - - -
15/04:30am - - - - - SSW 52 65 28 35 - - -
15/04:00am - - - - - SW 54 63 29 34 - - -
15/03:30am - - - - - SW 54 65 29 35 - - -
15/03:15am - - - - - SSW 56 83 30 45 - - -
15/03:00am - - - - - SSW 54 65 29 35 - - -
15/02:30am - - - - - SW 52 61 28 33 - - -
15/02:00am - - - - - SW 59 80 32 43 - - -
15/01:30am - - - - - SW 56 76 30 41 - - -
15/01:27am - - - - - SW 59 78 32 42 - - -
15/01:00am - - - - - SW 65 78 35 42 - - -

Latest Capital City Observations: Canberra | Sydney | Melbourne | Brisbane | Adelaide | Perth | Hobart | Darwin

Other formats

Comma delimited format used in spreadsheet applications
http://www.bom.gov.au/fwo/IDV60901/IDV60901.94853.axf

JavaScript Object Notation format (JSON) in row-major order
http://www.bom.gov.au/fwo/IDV60901/IDV60901.94853.json

Data quality

Most of these data are generated automatically and are frequently updated. Quality checks on data are not normally performed. It is possible for incorrect values to appear. Refer to information at About Latest Weather Observations and please check the disclaimer before using these data.